sensor_id;sensor_type;location;lat;lon;timestamp;pressure;altitude;pressure_sealevel;temperature;humidity
71344;BME280;59146;43.850;25.948;2023-04-09T00:02:08;101630.19;;;8.84;74.48
71344;BME280;59146;43.850;25.948;2023-04-09T00:04:34;101668.50;;;9.05;74.20
71344;BME280;59146;43.850;25.948;2023-04-09T00:07:00;101646.63;;;8.84;74.41
71344;BME280;59146;43.850;25.948;2023-04-09T00:09:25;101632.94;;;8.79;74.31
71344;BME280;59146;43.850;25.948;2023-04-09T00:11:50;101579.94;;;8.55;74.34
71344;BME280;59146;43.850;25.948;2023-04-09T00:14:16;101619.13;;;8.77;74.23
71344;BME280;59146;43.850;25.948;2023-04-09T00:16:41;101579.38;;;8.47;74.24
71344;BME280;59146;43.850;25.948;2023-04-09T00:19:07;101612.63;;;8.64;74.68
71344;BME280;59146;43.850;25.948;2023-04-09T00:21:32;101595.94;;;8.45;74.71
71344;BME280;59146;43.850;25.948;2023-04-09T00:23:57;101665.41;;;8.94;74.37
71344;BME280;59146;43.850;25.948;2023-04-09T00:26:23;101648.41;;;8.84;74.93
71344;BME280;59146;43.850;25.948;2023-04-09T00:28:48;101623.00;;;8.65;75.44
71344;BME280;59146;43.850;25.948;2023-04-09T00:31:14;101630.50;;;8.74;75.37
71344;BME280;59146;43.850;25.948;2023-04-09T00:33:40;101678.00;;;9.06;75.27
71344;BME280;59146;43.850;25.948;2023-04-09T00:36:06;101627.59;;;8.82;74.85
71344;BME280;59146;43.850;25.948;2023-04-09T00:38:31;101629.16;;;8.88;74.73
71344;BME280;59146;43.850;25.948;2023-04-09T00:40:57;101628.81;;;8.97;74.51
71344;BME280;59146;43.850;25.948;2023-04-09T00:43:22;101643.91;;;9.12;74.25
71344;BME280;59146;43.850;25.948;2023-04-09T00:45:47;101646.91;;;9.24;73.94
71344;BME280;59146;43.850;25.948;2023-04-09T00:48:14;101616.38;;;9.05;73.63
71344;BME280;59146;43.850;25.948;2023-04-09T00:50:41;101532.28;;;8.53;73.54
71344;BME280;59146;43.850;25.948;2023-04-09T00:53:06;101576.75;;;8.72;73.52
71344;BME280;59146;43.850;25.948;2023-04-09T00:55:33;101621.97;;;8.94;73.73
71344;BME280;59146;43.850;25.948;2023-04-09T00:58:00;101607.84;;;8.76;74.58
71344;BME280;59146;43.850;25.948;2023-04-09T01:00:25;101622.59;;;8.77;74.43
71344;BME280;59146;43.850;25.948;2023-04-09T01:02:52;101654.78;;;9.00;74.79
71344;BME280;59146;43.850;25.948;2023-04-09T01:05:20;101634.94;;;8.96;74.18
71344;BME280;59146;43.850;25.948;2023-04-09T01:08:09;101670.56;;;8.95;74.67
71344;BME280;59146;43.850;25.948;2023-04-09T01:13:06;101675.78;;;8.95;75.26
71344;BME280;59146;43.850;25.948;2023-04-09T01:15:37;101619.50;;;8.66;75.47
71344;BME280;59146;43.850;25.948;2023-04-09T01:18:17;101583.63;;;8.50;75.26
71344;BME280;59146;43.850;25.948;2023-04-09T01:21:05;101648.06;;;8.93;74.93
71344;BME280;59146;43.850;25.948;2023-04-09T01:28:44;101654.19;;;8.92;75.10
71344;BME280;59146;43.850;25.948;2023-04-09T01:31:14;101664.41;;;8.98;75.01
71344;BME280;59146;43.850;25.948;2023-04-09T01:33:40;101652.13;;;8.76;75.61
71344;BME280;59146;43.850;25.948;2023-04-09T01:36:06;101659.84;;;8.79;75.65
71344;BME280;59146;43.850;25.948;2023-04-09T01:38:34;101570.75;;;8.19;75.95
71344;BME280;59146;43.850;25.948;2023-04-09T01:41:00;101666.69;;;8.82;75.71
71344;BME280;59146;43.850;25.948;2023-04-09T01:43:27;101663.25;;;8.82;75.65
71344;BME280;59146;43.850;25.948;2023-04-09T01:45:54;101638.47;;;8.70;75.64
71344;BME280;59146;43.850;25.948;2023-04-09T01:48:21;101595.31;;;8.38;75.54
71344;BME280;59146;43.850;25.948;2023-04-09T01:50:48;101568.97;;;8.21;75.73
71344;BME280;59146;43.850;25.948;2023-04-09T01:53:13;101622.63;;;8.51;76.17
71344;BME280;59146;43.850;25.948;2023-04-09T01:55:39;101608.78;;;8.25;76.25
71344;BME280;59146;43.850;25.948;2023-04-09T01:58:05;101560.97;;;8.01;76.31
71344;BME280;59146;43.850;25.948;2023-04-09T02:00:34;101595.91;;;8.20;76.35
71344;BME280;59146;43.850;25.948;2023-04-09T02:03:07;101655.38;;;8.58;75.89
71344;BME280;59146;43.850;25.948;2023-04-09T02:05:41;101626.25;;;8.47;75.46
71344;BME280;59146;43.850;25.948;2023-04-09T02:08:09;101638.47;;;8.45;75.56
71344;BME280;59146;43.850;25.948;2023-04-09T02:10:37;101514.34;;;7.69;75.81
71344;BME280;59146;43.850;25.948;2023-04-09T02:13:04;101535.47;;;7.86;75.74
71344;BME280;59146;43.850;25.948;2023-04-09T02:15:33;101594.03;;;8.25;75.59
71344;BME280;59146;43.850;25.948;2023-04-09T02:18:00;101657.19;;;8.56;76.08
71344;BME280;59146;43.850;25.948;2023-04-09T02:20:26;101609.72;;;8.22;76.04
71344;BME280;59146;43.850;25.948;2023-04-09T02:22:51;101614.66;;;8.31;75.95
71344;BME280;59146;43.850;25.948;2023-04-09T02:25:17;101596.91;;;8.16;76.18
71344;BME280;59146;43.850;25.948;2023-04-09T02:27:43;101599.44;;;8.18;76.13
71344;BME280;59146;43.850;25.948;2023-04-09T02:30:08;101606.19;;;8.23;76.20
71344;BME280;59146;43.850;25.948;2023-04-09T02:32:34;101602.00;;;8.19;76.66
71344;BME280;59146;43.850;25.948;2023-04-09T02:34:59;101574.06;;;7.98;76.76
71344;BME280;59146;43.850;25.948;2023-04-09T02:37:25;101605.75;;;8.11;77.16
71344;BME280;59146;43.850;25.948;2023-04-09T02:39:50;101574.13;;;7.96;77.12
71344;BME280;59146;43.850;25.948;2023-04-09T02:42:16;101623.63;;;8.21;77.61
71344;BME280;59146;43.850;25.948;2023-04-09T02:44:41;101584.69;;;7.92;77.78
71344;BME280;59146;43.850;25.948;2023-04-09T02:47:08;101611.06;;;8.08;78.11
71344;BME280;59146;43.850;25.948;2023-04-09T02:49:33;101610.34;;;8.04;78.14
71344;BME280;59146;43.850;25.948;2023-04-09T02:51:59;101585.88;;;7.82;78.15
71344;BME280;59146;43.850;25.948;2023-04-09T02:54:24;101572.13;;;7.78;78.21
71344;BME280;59146;43.850;25.948;2023-04-09T02:56:50;101576.47;;;7.78;78.22
71344;BME280;59146;43.850;25.948;2023-04-09T02:59:15;101560.34;;;7.68;78.16
71344;BME280;59146;43.850;25.948;2023-04-09T03:01:41;101639.22;;;8.21;78.11
71344;BME280;59146;43.850;25.948;2023-04-09T03:04:06;101609.03;;;7.91;77.98
71344;BME280;59146;43.850;25.948;2023-04-09T03:06:31;101647.25;;;8.15;78.29
71344;BME280;59146;43.850;25.948;2023-04-09T03:08:57;101608.16;;;7.90;78.20
71344;BME280;59146;43.850;25.948;2023-04-09T03:11:22;101654.50;;;8.06;78.53
71344;BME280;59146;43.850;25.948;2023-04-09T03:13:47;101633.13;;;7.96;78.60
71344;BME280;59146;43.850;25.948;2023-04-09T03:16:13;101505.47;;;7.22;78.79
71344;BME280;59146;43.850;25.948;2023-04-09T03:18:38;101595.94;;;7.66;79.02
71344;BME280;59146;43.850;25.948;2023-04-09T03:21:07;101667.38;;;8.10;79.09
71344;BME280;59146;43.850;25.948;2023-04-09T03:23:33;101659.31;;;7.91;78.97
71344;BME280;59146;43.850;25.948;2023-04-09T03:26:03;101633.84;;;7.73;79.37
71344;BME280;59146;43.850;25.948;2023-04-09T03:28:30;101596.88;;;7.36;79.29
71344;BME280;59146;43.850;25.948;2023-04-09T03:30:56;101581.78;;;7.19;79.27
71344;BME280;59146;43.850;25.948;2023-04-09T03:33:22;101621.06;;;7.38;79.33
71344;BME280;59146;43.850;25.948;2023-04-09T03:35:47;101576.97;;;7.06;79.62
71344;BME280;59146;43.850;25.948;2023-04-09T03:38:13;101621.19;;;7.34;79.83
71344;BME280;59146;43.850;25.948;2023-04-09T03:40:38;101694.44;;;7.77;79.89
71344;BME280;59146;43.850;25.948;2023-04-09T03:43:04;101689.25;;;7.77;79.81
71344;BME280;59146;43.850;25.948;2023-04-09T03:45:29;101626.25;;;7.38;79.79
71344;BME280;59146;43.850;25.948;2023-04-09T03:47:55;101657.56;;;7.63;79.41
71344;BME280;59146;43.850;25.948;2023-04-09T03:50:20;101668.44;;;7.77;79.12
71344;BME280;59146;43.850;25.948;2023-04-09T03:52:45;101665.78;;;7.78;78.72
71344;BME280;59146;43.850;25.948;2023-04-09T03:55:11;101698.69;;;8.07;77.87
71344;BME280;59146;43.850;25.948;2023-04-09T03:57:36;101664.34;;;7.96;77.57
71344;BME280;59146;43.850;25.948;2023-04-09T04:00:02;101693.78;;;8.26;76.58
71344;BME280;59146;43.850;25.948;2023-04-09T04:02:28;101650.50;;;8.22;76.50
71344;BME280;59146;43.850;25.948;2023-04-09T04:05:00;101646.69;;;9.30;73.60
71344;BME280;59146;43.850;25.948;2023-04-09T04:07:25;101701.25;;;10.88;68.69
71344;BME280;59146;43.850;25.948;2023-04-09T04:09:51;101644.66;;;11.63;63.73
71344;BME280;59146;43.850;25.948;2023-04-09T04:12:16;101561.91;;;12.13;60.33
71344;BME280;59146;43.850;25.948;2023-04-09T04:14:42;101627.75;;;12.91;58.80
71344;BME280;59146;43.850;25.948;2023-04-09T04:17:07;101691.31;;;13.77;56.98
71344;BME280;59146;43.850;25.948;2023-04-09T04:19:33;101684.28;;;14.09;55.45
71344;BME280;59146;43.850;25.948;2023-04-09T04:21:58;101627.13;;;13.51;57.20
71344;BME280;59146;43.850;25.948;2023-04-09T04:24:23;101651.09;;;13.61;58.19
71344;BME280;59146;43.850;25.948;2023-04-09T04:26:49;101592.88;;;14.73;53.50
71344;BME280;59146;43.850;25.948;2023-04-09T04:29:14;101643.53;;;14.91;53.46
71344;BME280;59146;43.850;25.948;2023-04-09T04:31:40;101650.78;;;14.12;55.52
71344;BME280;59146;43.850;25.948;2023-04-09T04:34:05;101634.41;;;14.39;55.29
71344;BME280;59146;43.850;25.948;2023-04-09T04:36:31;101684.44;;;15.25;51.94
71344;BME280;59146;43.850;25.948;2023-04-09T04:38:56;101656.69;;;15.33;52.55
71344;BME280;59146;43.850;25.948;2023-04-09T04:41:22;101625.47;;;15.82;50.59
71344;BME280;59146;43.850;25.948;2023-04-09T04:43:47;101633.13;;;16.52;47.62
71344;BME280;59146;43.850;25.948;2023-04-09T04:46:13;101614.06;;;17.84;43.82
71344;BME280;59146;43.850;25.948;2023-04-09T04:48:38;101600.19;;;18.39;41.58
71344;BME280;59146;43.850;25.948;2023-04-09T04:51:04;101584.41;;;19.28;39.12
71344;BME280;59146;43.850;25.948;2023-04-09T04:53:29;101652.34;;;19.51;39.38
71344;BME280;59146;43.850;25.948;2023-04-09T04:55:55;101680.66;;;18.71;42.50
71344;BME280;59146;43.850;25.948;2023-04-09T04:58:20;101697.63;;;17.24;46.20
71344;BME280;59146;43.850;25.948;2023-04-09T05:00:46;101680.94;;;17.48;45.86
71344;BME280;59146;43.850;25.948;2023-04-09T05:03:11;101682.22;;;17.18;46.80
71344;BME280;59146;43.850;25.948;2023-04-09T05:05:37;101677.34;;;16.87;47.62
71344;BME280;59146;43.850;25.948;2023-04-09T05:08:03;101693.84;;;17.40;46.72
71344;BME280;59146;43.850;25.948;2023-04-09T05:10:28;101679.69;;;17.90;45.14
71344;BME280;59146;43.850;25.948;2023-04-09T05:12:54;101645.63;;;18.33;43.79
71344;BME280;59146;43.850;25.948;2023-04-09T05:15:19;101642.28;;;18.66;41.61
71344;BME280;59146;43.850;25.948;2023-04-09T05:17:44;101640.66;;;19.53;40.54
71344;BME280;59146;43.850;25.948;2023-04-09T05:20:10;101661.88;;;19.53;39.80
71344;BME280;59146;43.850;25.948;2023-04-09T05:22:36;101662.34;;;19.14;38.55
71344;BME280;59146;43.850;25.948;2023-04-09T05:25:02;101643.19;;;19.44;36.65
71344;BME280;59146;43.850;25.948;2023-04-09T05:27:28;101681.03;;;19.46;37.15
71344;BME280;59146;43.850;25.948;2023-04-09T05:29:54;101622.09;;;19.31;35.85
71344;BME280;59146;43.850;25.948;2023-04-09T05:32:19;101701.84;;;19.50;36.73
71344;BME280;59146;43.850;25.948;2023-04-09T05:34:44;101633.63;;;18.64;37.56
71344;BME280;59146;43.850;25.948;2023-04-09T05:37:10;101703.38;;;18.63;38.53
71344;BME280;59146;43.850;25.948;2023-04-09T05:39:35;101646.75;;;18.42;37.81
71344;BME280;59146;43.850;25.948;2023-04-09T05:42:01;101641.25;;;17.74;38.90
71344;BME280;59146;43.850;25.948;2023-04-09T05:44:26;101687.84;;;17.75;39.57
71344;BME280;59146;43.850;25.948;2023-04-09T05:46:52;101624.47;;;17.62;39.28
71344;BME280;59146;43.850;25.948;2023-04-09T05:49:17;101711.56;;;17.51;40.25
71344;BME280;59146;43.850;25.948;2023-04-09T05:51:43;101666.78;;;17.12;41.50
71344;BME280;59146;43.850;25.948;2023-04-09T05:54:08;101682.41;;;15.84;45.13
71344;BME280;59146;43.850;25.948;2023-04-09T05:56:34;101659.78;;;15.26;46.35
71344;BME280;59146;43.850;25.948;2023-04-09T05:58:59;101712.63;;;15.79;44.82
71344;BME280;59146;43.850;25.948;2023-04-09T06:01:25;101604.13;;;15.32;44.30
71344;BME280;59146;43.850;25.948;2023-04-09T06:03:51;101643.69;;;15.58;44.94
71344;BME280;59146;43.850;25.948;2023-04-09T06:06:16;101691.72;;;16.43;43.22
71344;BME280;59146;43.850;25.948;2023-04-09T06:08:42;101715.50;;;16.56;43.18
71344;BME280;59146;43.850;25.948;2023-04-09T06:11:09;101673.94;;;15.94;46.39
71344;BME280;59146;43.850;25.948;2023-04-09T06:13:35;101679.84;;;15.97;48.01
71344;BME280;59146;43.850;25.948;2023-04-09T06:16:03;101591.81;;;15.60;47.52
71344;BME280;59146;43.850;25.948;2023-04-09T06:18:28;101621.75;;;15.72;47.38
71344;BME280;59146;43.850;25.948;2023-04-09T06:21:04;101722.63;;;15.60;48.49
71344;BME280;59146;43.850;25.948;2023-04-09T06:23:31;101649.81;;;14.74;49.21
71344;BME280;59146;43.850;25.948;2023-04-09T06:25:57;101700.78;;;14.72;50.75
71344;BME280;59146;43.850;25.948;2023-04-09T06:28:22;101620.34;;;13.47;51.63
71344;BME280;59146;43.850;25.948;2023-04-09T06:30:48;101692.91;;;13.64;54.07
71344;BME280;59146;43.850;25.948;2023-04-09T06:33:13;101731.56;;;14.40;53.05
71344;BME280;59146;43.850;25.948;2023-04-09T06:35:39;101723.88;;;15.10;50.13
71344;BME280;59146;43.850;25.948;2023-04-09T06:38:04;101724.41;;;15.59;49.20
71344;BME280;59146;43.850;25.948;2023-04-09T06:40:31;101690.78;;;15.91;47.44
71344;BME280;59146;43.850;25.948;2023-04-09T06:42:56;101677.00;;;16.00;46.72
71344;BME280;59146;43.850;25.948;2023-04-09T06:45:22;101696.28;;;16.01;47.70
71344;BME280;59146;43.850;25.948;2023-04-09T06:47:47;101686.75;;;16.12;46.96
71344;BME280;59146;43.850;25.948;2023-04-09T06:50:13;101726.06;;;16.29;46.90
71344;BME280;59146;43.850;25.948;2023-04-09T06:52:38;101657.09;;;15.82;47.08
71344;BME280;59146;43.850;25.948;2023-04-09T06:55:04;101700.72;;;16.00;47.89
71344;BME280;59146;43.850;25.948;2023-04-09T06:57:30;101663.16;;;15.70;48.25
71344;BME280;59146;43.850;25.948;2023-04-09T06:59:55;101676.31;;;15.42;49.48
71344;BME280;59146;43.850;25.948;2023-04-09T07:02:20;101673.34;;;15.62;48.86
71344;BME280;59146;43.850;25.948;2023-04-09T07:04:46;101659.31;;;15.61;48.49
71344;BME280;59146;43.850;25.948;2023-04-09T07:07:11;101723.84;;;16.36;47.81
71344;BME280;59146;43.850;25.948;2023-04-09T07:09:37;101675.28;;;16.26;48.08
71344;BME280;59146;43.850;25.948;2023-04-09T07:12:02;101691.47;;;16.60;45.34
71344;BME280;59146;43.850;25.948;2023-04-09T07:14:28;101651.41;;;16.02;46.67
71344;BME280;59146;43.850;25.948;2023-04-09T07:16:53;101708.91;;;16.63;46.13
71344;BME280;59146;43.850;25.948;2023-04-09T07:19:18;101636.34;;;16.04;45.89
71344;BME280;59146;43.850;25.948;2023-04-09T07:21:44;101644.97;;;16.45;45.80
71344;BME280;59146;43.850;25.948;2023-04-09T07:24:09;101703.13;;;16.83;45.80
71344;BME280;59146;43.850;25.948;2023-04-09T07:26:35;101657.13;;;16.48;45.75
71344;BME280;59146;43.850;25.948;2023-04-09T07:29:01;101691.38;;;16.75;45.44
71344;BME280;59146;43.850;25.948;2023-04-09T07:31:28;101665.41;;;16.68;45.65
71344;BME280;59146;43.850;25.948;2023-04-09T07:33:53;101659.59;;;16.63;46.07
71344;BME280;59146;43.850;25.948;2023-04-09T07:36:19;101722.78;;;17.29;44.75
71344;BME280;59146;43.850;25.948;2023-04-09T07:38:44;101665.22;;;17.09;42.87
71344;BME280;59146;43.850;25.948;2023-04-09T07:41:10;101692.56;;;16.96;43.24
71344;BME280;59146;43.850;25.948;2023-04-09T07:43:36;101615.91;;;16.85;44.49
71344;BME280;59146;43.850;25.948;2023-04-09T07:46:02;101583.22;;;16.62;43.56
71344;BME280;59146;43.850;25.948;2023-04-09T07:48:28;101716.44;;;17.07;43.86
71344;BME280;59146;43.850;25.948;2023-04-09T07:50:54;101725.41;;;17.04;43.59
71344;BME280;59146;43.850;25.948;2023-04-09T07:53:19;101689.75;;;16.59;41.52
71344;BME280;59146;43.850;25.948;2023-04-09T07:55:45;101723.06;;;17.00;44.57
71344;BME280;59146;43.850;25.948;2023-04-09T07:58:10;101559.94;;;16.17;43.86
71344;BME280;59146;43.850;25.948;2023-04-09T08:00:36;101694.53;;;16.40;43.90
71344;BME280;59146;43.850;25.948;2023-04-09T08:03:01;101673.34;;;16.15;40.81
71344;BME280;59146;43.850;25.948;2023-04-09T08:05:28;101699.28;;;15.68;44.36
71344;BME280;59146;43.850;25.948;2023-04-09T08:07:55;101730.66;;;15.99;41.29
71344;BME280;59146;43.850;25.948;2023-04-09T08:10:21;101709.31;;;15.89;41.15
71344;BME280;59146;43.850;25.948;2023-04-09T08:12:47;101713.31;;;15.68;41.46
71344;BME280;59146;43.850;25.948;2023-04-09T08:15:13;101705.66;;;15.78;40.14
71344;BME280;59146;43.850;25.948;2023-04-09T08:17:38;101665.34;;;15.07;40.94
71344;BME280;59146;43.850;25.948;2023-04-09T08:20:04;101710.16;;;15.05;40.60
71344;BME280;59146;43.850;25.948;2023-04-09T08:22:30;101634.31;;;14.40;41.64
71344;BME280;59146;43.850;25.948;2023-04-09T08:24:56;101662.53;;;14.66;41.35
71344;BME280;59146;43.850;25.948;2023-04-09T08:27:23;101677.03;;;14.73;41.75
71344;BME280;59146;43.850;25.948;2023-04-09T08:29:49;101711.53;;;14.83;41.96
71344;BME280;59146;43.850;25.948;2023-04-09T08:32:15;101638.28;;;14.47;40.90
71344;BME280;59146;43.850;25.948;2023-04-09T08:34:41;101692.28;;;14.53;41.18
71344;BME280;59146;43.850;25.948;2023-04-09T08:37:06;101726.84;;;14.76;41.79
71344;BME280;59146;43.850;25.948;2023-04-09T08:39:32;101710.44;;;14.57;42.03
71344;BME280;59146;43.850;25.948;2023-04-09T08:41:58;101676.50;;;14.53;41.92
71344;BME280;59146;43.850;25.948;2023-04-09T08:44:28;101676.22;;;15.01;42.63
71344;BME280;59146;43.850;25.948;2023-04-09T08:46:53;101671.63;;;15.33;40.82
71344;BME280;59146;43.850;25.948;2023-04-09T08:49:20;101658.94;;;15.25;40.04
71344;BME280;59146;43.850;25.948;2023-04-09T08:51:48;101707.16;;;15.40;40.56
71344;BME280;59146;43.850;25.948;2023-04-09T08:54:17;101568.72;;;14.67;39.55
71344;BME280;59146;43.850;25.948;2023-04-09T08:56:47;101664.22;;;15.39;40.55
71344;BME280;59146;43.850;25.948;2023-04-09T08:59:16;101535.09;;;14.86;39.78
71344;BME280;59146;43.850;25.948;2023-04-09T09:01:45;101650.56;;;15.33;40.39
71344;BME280;59146;43.850;25.948;2023-04-09T09:04:12;101600.38;;;15.22;40.47
71344;BME280;59146;43.850;25.948;2023-04-09T09:06:39;101672.19;;;15.66;39.54
71344;BME280;59146;43.850;25.948;2023-04-09T09:11:45;101684.75;;;16.16;38.47
71344;BME280;59146;43.850;25.948;2023-04-09T09:14:16;101643.31;;;16.18;40.25
71344;BME280;59146;43.850;25.948;2023-04-09T09:16:44;101699.47;;;16.59;37.70
71344;BME280;59146;43.850;25.948;2023-04-09T09:21:55;101587.00;;;16.06;37.79
71344;BME280;59146;43.850;25.948;2023-04-09T09:24:21;101544.34;;;15.74;37.62
71344;BME280;59146;43.850;25.948;2023-04-09T09:26:47;101589.59;;;15.94;37.01
71344;BME280;59146;43.850;25.948;2023-04-09T09:29:12;101630.00;;;16.33;40.04
71344;BME280;59146;43.850;25.948;2023-04-09T09:31:49;101693.78;;;16.52;38.71
71344;BME280;59146;43.850;25.948;2023-04-09T09:34:16;101675.66;;;16.60;38.31
71344;BME280;59146;43.850;25.948;2023-04-09T09:36:43;101631.19;;;16.15;36.04
71344;BME280;59146;43.850;25.948;2023-04-09T09:39:09;101655.88;;;16.14;35.52
71344;BME280;59146;43.850;25.948;2023-04-09T09:41:36;101649.13;;;16.10;35.08
71344;BME280;59146;43.850;25.948;2023-04-09T09:44:02;101593.50;;;16.27;36.96
71344;BME280;59146;43.850;25.948;2023-04-09T09:46:33;101637.69;;;16.88;36.11
71344;BME280;59146;43.850;25.948;2023-04-09T09:49:00;101667.66;;;16.87;35.83
71344;BME280;59146;43.850;25.948;2023-04-09T09:51:26;101644.09;;;16.97;35.88
71344;BME280;59146;43.850;25.948;2023-04-09T09:53:55;101598.84;;;16.65;33.32
71344;BME280;59146;43.850;25.948;2023-04-09T09:56:23;101683.25;;;16.65;34.23
71344;BME280;59146;43.850;25.948;2023-04-09T10:01:26;101615.41;;;16.67;34.96
71344;BME280;59146;43.850;25.948;2023-04-09T10:03:52;101632.28;;;16.90;33.15
71344;BME280;59146;43.850;25.948;2023-04-09T10:06:18;101687.06;;;17.24;32.66
71344;BME280;59146;43.850;25.948;2023-04-09T10:08:44;101615.28;;;16.94;32.87
71344;BME280;59146;43.850;25.948;2023-04-09T10:11:12;101648.22;;;17.75;32.45
71344;BME280;59146;43.850;25.948;2023-04-09T10:13:40;101663.00;;;18.13;33.74
71344;BME280;59146;43.850;25.948;2023-04-09T10:16:07;101565.09;;;17.19;32.58
71344;BME280;59146;43.850;25.948;2023-04-09T10:18:33;101596.69;;;17.08;32.60
71344;BME280;59146;43.850;25.948;2023-04-09T10:21:14;101671.84;;;17.65;33.45
71344;BME280;59146;43.850;25.948;2023-04-09T10:23:43;101672.47;;;17.56;34.92
71344;BME280;59146;43.850;25.948;2023-04-09T10:26:09;101581.72;;;16.83;33.19
71344;BME280;59146;43.850;25.948;2023-04-09T10:28:38;101640.38;;;17.24;33.35
71344;BME280;59146;43.850;25.948;2023-04-09T10:31:05;101664.38;;;17.21;33.59
71344;BME280;59146;43.850;25.948;2023-04-09T10:33:32;101649.91;;;17.02;33.72
71344;BME280;59146;43.850;25.948;2023-04-09T10:36:04;101596.06;;;17.17;34.66
71344;BME280;59146;43.850;25.948;2023-04-09T10:38:37;101629.81;;;17.50;33.16
71344;BME280;59146;43.850;25.948;2023-04-09T10:41:08;101612.28;;;17.36;33.59
71344;BME280;59146;43.850;25.948;2023-04-09T10:43:37;101585.34;;;17.31;33.42
71344;BME280;59146;43.850;25.948;2023-04-09T10:46:23;101656.28;;;17.97;33.25
71344;BME280;59146;43.850;25.948;2023-04-09T10:49:09;101615.38;;;17.30;32.58
71344;BME280;59146;43.850;25.948;2023-04-09T10:51:37;101627.06;;;17.26;33.91
71344;BME280;59146;43.850;25.948;2023-04-09T10:54:04;101598.91;;;17.63;33.84
71344;BME280;59146;43.850;25.948;2023-04-09T10:56:30;101578.31;;;18.02;32.60
71344;BME280;59146;43.850;25.948;2023-04-09T10:58:56;101606.72;;;18.11;32.24
71344;BME280;59146;43.850;25.948;2023-04-09T11:01:21;101581.19;;;17.99;32.29
71344;BME280;59146;43.850;25.948;2023-04-09T11:04:06;101565.34;;;17.52;32.30
71344;BME280;59146;43.850;25.948;2023-04-09T11:06:35;101584.19;;;17.71;32.95
71344;BME280;59146;43.850;25.948;2023-04-09T11:09:00;101604.88;;;18.36;31.42
71344;BME280;59146;43.850;25.948;2023-04-09T11:11:27;101530.88;;;18.01;31.35
71344;BME280;59146;43.850;25.948;2023-04-09T11:13:58;101591.72;;;17.88;31.86
71344;BME280;59146;43.850;25.948;2023-04-09T11:16:28;101531.28;;;17.60;31.47
71344;BME280;59146;43.850;25.948;2023-04-09T11:18:53;101527.53;;;17.39;32.42
71344;BME280;59146;43.850;25.948;2023-04-09T11:21:20;101557.06;;;18.04;32.51
71344;BME280;59146;43.850;25.948;2023-04-09T11:23:52;101555.53;;;18.12;34.89
71344;BME280;59146;43.850;25.948;2023-04-09T11:26:22;101530.38;;;17.72;33.69
71344;BME280;59146;43.850;25.948;2023-04-09T11:28:48;101540.84;;;17.50;35.75
71344;BME280;59146;43.850;25.948;2023-04-09T11:31:13;101586.59;;;17.74;32.45
71344;BME280;59146;43.850;25.948;2023-04-09T11:33:39;101528.53;;;17.49;31.08
71344;BME280;59146;43.850;25.948;2023-04-09T11:36:04;101541.84;;;17.60;31.56
71344;BME280;59146;43.850;25.948;2023-04-09T11:38:30;101591.13;;;18.19;32.58
71344;BME280;59146;43.850;25.948;2023-04-09T11:40:56;101596.03;;;17.89;32.03
71344;BME280;59146;43.850;25.948;2023-04-09T11:43:23;101529.84;;;17.43;32.07
71344;BME280;59146;43.850;25.948;2023-04-09T11:45:48;101559.22;;;17.75;33.03
71344;BME280;59146;43.850;25.948;2023-04-09T11:48:15;101566.50;;;17.95;32.69
71344;BME280;59146;43.850;25.948;2023-04-09T11:50:42;101577.44;;;17.91;35.41
71344;BME280;59146;43.850;25.948;2023-04-09T11:53:21;101540.53;;;17.78;35.00
71344;BME280;59146;43.850;25.948;2023-04-09T11:55:49;101544.72;;;17.81;32.11
71344;BME280;59146;43.850;25.948;2023-04-09T11:58:15;101587.97;;;17.80;33.39
71344;BME280;59146;43.850;25.948;2023-04-09T12:00:41;101569.91;;;17.74;34.93
71344;BME280;59146;43.850;25.948;2023-04-09T12:03:08;101521.69;;;17.59;34.23
71344;BME280;59146;43.850;25.948;2023-04-09T12:05:34;101522.03;;;17.78;33.87
71344;BME280;59146;43.850;25.948;2023-04-09T12:08:05;101555.13;;;17.71;33.27
71344;BME280;59146;43.850;25.948;2023-04-09T12:10:34;101580.66;;;17.83;34.02
71344;BME280;59146;43.850;25.948;2023-04-09T12:13:09;101555.13;;;17.71;32.65
71344;BME280;59146;43.850;25.948;2023-04-09T12:15:36;101502.69;;;17.54;35.44
71344;BME280;59146;43.850;25.948;2023-04-09T12:18:02;101514.25;;;17.64;35.35
71344;BME280;59146;43.850;25.948;2023-04-09T12:20:35;101490.53;;;17.52;34.06
71344;BME280;59146;43.850;25.948;2023-04-09T12:23:04;101547.88;;;17.86;35.28
71344;BME280;59146;43.850;25.948;2023-04-09T12:25:32;101498.28;;;17.42;35.53
71344;BME280;59146;43.850;25.948;2023-04-09T12:27:58;101511.19;;;17.34;34.90
71344;BME280;59146;43.850;25.948;2023-04-09T12:30:23;101478.59;;;17.22;33.82
71344;BME280;59146;43.850;25.948;2023-04-09T12:32:50;101538.47;;;17.58;33.24
71344;BME280;59146;43.850;25.948;2023-04-09T12:35:16;101554.00;;;17.86;34.02
71344;BME280;59146;43.850;25.948;2023-04-09T12:37:42;101487.56;;;17.56;33.79
71344;BME280;59146;43.850;25.948;2023-04-09T12:40:08;101549.25;;;17.79;34.12
71344;BME280;59146;43.850;25.948;2023-04-09T12:42:33;101518.19;;;17.59;34.68
71344;BME280;59146;43.850;25.948;2023-04-09T12:44:59;101426.91;;;16.84;36.46
71344;BME280;59146;43.850;25.948;2023-04-09T12:47:24;101374.94;;;16.60;35.28
71344;BME280;59146;43.850;25.948;2023-04-09T12:49:49;101424.84;;;17.00;34.82
71344;BME280;59146;43.850;25.948;2023-04-09T12:52:15;101526.97;;;17.59;33.69
71344;BME280;59146;43.850;25.948;2023-04-09T12:54:42;101482.22;;;17.69;32.10
71344;BME280;59146;43.850;25.948;2023-04-09T12:57:08;101414.69;;;17.41;32.31